Terminal Aerodrome Forecast
Issued by NWS

Home | Current Version | Previous Version | Text Only | Print | Product List | Glossary On
Versions: 1 2 3 4 5 6 7 8 9 10 11 12 13 14 15 16 17 18 19 20 21 22 23 24 25
000
FTUS44 KMAF 020500
TAFFST
TAF
KFST 020525Z 0206/0306 10006KT P6SM SCT120 OVC250
     FM021600 08009KT P6SM SCT050 BKN250
     FM030200 11005KT P6SM BKN200=

USA.gov is the U.S. government's official web portal to all federal, state and local government web resources and services.